Time;durP1;ratioP1;P1;durP2;ratioP2;P2;SDS_P1;SDS_P2;PMS_P1;PMS_P2;Temp;Humidity;BMP_temperature;BMP_pressure;BME280_temperature;BME280_humidity;BME280_pressure;Samples;Min_cycle;Max_cycle;Signal;HPM_P1;HPM_P2
2022/05/22 00:03:57;;;;;;;10.27;4.30;;;;;;;16.17;100.00;99104.41;31356714;28;20053;-76
2022/05/22 00:18:58;;;;;;;8.63;4.38;;;;;;;16.20;100.00;99100.72;31345548;28;20044;-75
2022/05/22 00:34:01;;;;;;;8.68;4.00;;;;;;;16.24;100.00;99112.97;31379204;28;20057;-74
2022/05/22 00:49:14;;;;;;;7.43;3.88;;;;;;;16.24;100.00;99101.25;31347284;28;20059;-75
2022/05/22 01:04:24;;;;;;;4.40;3.27;;;;;;;16.28;100.00;99096.31;31364444;28;20051;-75
2022/05/22 01:19:26;;;;;;;5.13;2.30;;;;;;;16.26;100.00;99065.94;31353547;28;20760;-74
2022/05/22 01:34:28;;;;;;;3.25;2.13;;;;;;;16.19;99.90;99033.50;31350675;28;20387;-74
2022/05/22 01:49:30;;;;;;;9.10;2.03;;;;;;;16.07;93.56;99048.28;31354358;28;20059;-74
2022/05/22 02:04:32;;;;;;;4.50;1.30;;;;;;;15.91;88.56;99069.50;31348646;28;20049;-74
2022/05/22 02:19:34;;;;;;;3.97;1.40;;;;;;;15.81;82.86;99081.84;31364035;28;20049;-75
2022/05/22 02:34:36;;;;;;;7.37;1.40;;;;;;;15.82;77.14;99066.16;31355497;28;20081;-75
2022/05/22 02:49:38;;;;;;;2.78;1.00;;;;;;;15.85;76.02;99060.47;31351415;28;20042;-74
2022/05/22 03:04:40;;;;;;;8.10;1.07;;;;;;;15.92;74.53;99098.38;31355731;28;20074;-75
2022/05/22 03:19:42;;;;;;;2.73;1.20;;;;;;;15.83;74.26;99123.13;31357543;28;20041;-74
2022/05/22 03:34:44;;;;;;;3.13;1.17;;;;;;;15.85;73.03;99126.16;31354996;28;20057;-75
2022/05/22 03:49:46;;;;;;;3.73;1.33;;;;;;;15.86;72.06;99115.94;31339736;28;20045;-75
2022/05/22 04:04:48;;;;;;;5.85;1.00;;;;;;;16.09;69.90;99106.78;31367879;28;20056;-75
2022/05/22 04:19:50;;;;;;;4.82;1.48;;;;;;;15.98;69.64;99082.03;31325127;28;20054;-75
2022/05/22 04:34:52;;;;;;;2.50;1.30;;;;;;;15.84;69.61;99069.91;31326096;28;20048;-74
2022/05/22 04:49:54;;;;;;;3.40;1.00;;;;;;;15.78;69.94;99060.91;31361464;28;20056;-75
2022/05/22 05:04:58;;;;;;;5.60;1.30;;;;;;;15.72;69.49;99062.81;31363636;28;20521;-75
2022/05/22 05:20:00;;;;;;;3.53;0.90;;;;;;;15.75;68.27;99048.16;31365653;28;20051;-76
2022/05/22 05:35:07;;;;;;;4.03;1.45;;;;;;;15.94;67.48;99045.91;31362867;28;20056;-76
2022/05/22 05:50:09;;;;;;;1.17;1.07;;;;;;;16.18;67.00;99051.16;31374433;28;20064;-74
2022/05/22 06:05:12;;;;;;;4.03;1.30;;;;;;;16.46;67.60;99040.47;31346752;28;20045;-75
2022/05/22 06:20:17;;;;;;;2.63;1.13;;;;;;;16.69;67.36;99032.00;31336182;28;20458;-74
2022/05/22 06:35:20;;;;;;;1.10;0.95;;;;;;;17.07;63.20;99015.59;31341420;28;20045;-74
2022/05/22 06:50:24;;;;;;;2.22;1.10;;;;;;;17.50;61.47;98994.38;31312782;28;20050;-76
2022/05/22 07:05:26;;;;;;;5.43;1.07;;;;;;;17.80;57.85;98976.31;31348571;28;20071;-75
2022/05/22 07:20:29;;;;;;;1.38;0.77;;;;;;;18.21;55.83;98975.91;31339146;28;20503;-75
2022/05/22 07:35:31;;;;;;;2.13;0.60;;;;;;;18.89;52.07;98956.22;31327097;28;20045;-78
2022/05/22 07:50:32;;;;;;;1.92;1.08;;;;;;;20.58;48.56;98927.31;31305255;28;20076;-76
2022/05/22 08:05:34;;;;;;;1.30;0.68;;;;;;;19.93;48.29;98919.78;31324992;28;20051;-77
2022/05/22 08:20:38;;;;;;;1.73;0.80;;;;;;;19.72;45.84;98904.91;31332903;28;20928;-78
2022/05/22 08:35:42;;;;;;;8.48;4.40;;;;;;;20.17;45.12;98918.38;31336956;28;20807;-78
2022/05/22 08:50:48;;;;;;;1.42;0.80;;;;;;;22.38;40.86;98919.09;31333671;28;20131;-78
2022/05/22 09:05:54;;;;;;;3.67;0.80;;;;;;;22.55;39.39;98882.84;31331519;28;20063;-77
2022/05/22 09:21:01;;;;;;;1.58;0.93;;;;;;;23.83;36.31;98882.34;31333096;28;20410;-77
2022/05/22 09:36:20;;;;;;;2.70;0.88;;;;;;;23.90;35.83;98864.28;31337815;28;20065;-77
2022/05/22 09:51:28;;;;;;;1.38;0.63;;;;;;;22.73;37.43;98859.88;31332851;28;20526;-82
2022/05/22 10:06:40;;;;;;;9.57;5.15;;;;;;;22.17;38.92;98853.88;31322953;28;20049;-77
2022/05/22 10:22:29;;;;;;;2.20;0.73;;;;;;;22.52;37.64;98861.78;31341842;28;20053;-75
2022/05/22 10:37:34;;;;;;;4.03;1.65;;;;;;;23.05;36.63;98845.22;31315293;28;20134;-74
2022/05/22 10:52:36;;;;;;;1.23;0.75;;;;;;;23.34;37.75;98843.38;31267762;28;20053;-75
2022/05/22 11:07:47;;;;;;;0.57;0.40;;;;;;;25.30;33.74;98837.16;31217211;28;20045;-77
2022/05/22 11:23:06;;;;;;;3.20;1.93;;;;;;;24.76;33.81;98847.25;31212861;28;20085;-76
2022/05/22 11:38:30;;;;;;;5.90;0.63;;;;;;;23.80;35.78;98817.66;31184461;28;20050;-75
2022/05/22 11:53:58;;;;;;;0.90;0.65;;;;;;;22.71;36.25;98806.38;31279914;28;20060;-75
2022/05/22 12:09:18;;;;;;;5.60;0.65;;;;;;;21.82;37.89;98816.97;31290972;28;20049;-73
2022/05/22 12:24:44;;;;;;;1.20;0.70;;;;;;;21.40;38.81;98786.22;31306895;28;20137;-74
2022/05/22 12:39:58;;;;;;;1.60;0.80;;;;;;;20.87;38.97;98807.19;31337675;28;20057;-73
2022/05/22 12:55:09;;;;;;;1.25;0.80;;;;;;;20.46;40.37;98807.41;31325757;28;20085;-75
2022/05/22 13:10:29;;;;;;;7.32;0.98;;;;;;;20.42;45.38;98790.41;31333710;28;20094;-76
2022/05/22 13:25:43;;;;;;;11.50;4.90;;;;;;;20.49;39.68;98778.81;31354237;28;20494;-75
2022/05/22 13:41:10;;;;;;;2.35;0.88;;;;;;;20.36;40.04;98770.41;31357425;28;20071;-76
2022/05/22 13:56:34;;;;;;;1.05;0.60;;;;;;;20.54;39.13;98786.28;31301187;28;20510;-76
2022/05/22 14:11:37;;;;;;;2.53;1.35;;;;;;;20.33;39.17;98788.72;31360034;28;20479;-76
2022/05/22 14:26:48;;;;;;;3.92;0.90;;;;;;;19.81;40.97;98808.22;31328326;28;20051;-75
2022/05/22 14:41:51;;;;;;;2.42;0.95;;;;;;;18.41;48.66;98835.59;31358362;28;20076;-76
2022/05/22 14:57:03;;;;;;;3.10;1.07;;;;;;;17.80;51.45;98863.03;31325316;28;20053;-75
2022/05/22 15:12:13;;;;;;;4.63;1.63;;;;;;;17.60;51.80;98858.47;31327425;28;20132;-75
2022/05/22 15:27:15;;;;;;;1.30;0.68;;;;;;;17.57;50.60;98860.22;31320206;28;20051;-75
2022/05/22 15:42:21;;;;;;;2.55;0.70;;;;;;;17.85;49.14;98857.56;31319296;28;20421;-75
2022/05/22 15:57:23;;;;;;;1.58;0.90;;;;;;;17.64;50.18;98886.44;31322622;28;20057;-76
2022/05/22 16:12:25;;;;;;;1.02;0.65;;;;;;;17.18;54.74;98906.72;31332788;28;20424;-75
2022/05/22 16:27:27;;;;;;;1.42;0.93;;;;;;;16.56;57.37;98919.28;31341996;28;20048;-76
2022/05/22 16:42:29;;;;;;;3.67;1.70;;;;;;;15.88;60.68;98939.09;31313102;28;20085;-76
2022/05/22 16:57:33;;;;;;;0.63;0.53;;;;;;;15.42;64.94;98947.25;31371059;28;20063;-75
2022/05/22 17:12:36;;;;;;;0.70;0.60;;;;;;;15.39;64.25;98936.53;31299246;28;20167;-75
2022/05/22 17:27:54;;;;;;;2.63;1.80;;;;;;;15.21;67.06;98943.78;31348119;28;20140;-76
2022/05/22 17:42:56;;;;;;;1.87;0.80;;;;;;;15.02;67.32;98953.47;31379002;28;20057;-77
2022/05/22 17:57:59;;;;;;;2.30;1.23;;;;;;;14.91;68.22;98964.97;31333678;28;20057;-74
2022/05/22 18:28:27;;;;;;;3.60;2.10;;;;;;;14.84;71.28;98975.56;31314800;28;20053;-77
2022/05/22 18:43:29;;;;;;;12.80;4.93;;;;;;;14.76;71.27;98979.88;31322381;28;20059;-75
2022/05/22 18:58:33;;;;;;;2.03;1.17;;;;;;;14.62;70.27;98982.19;31341845;28;20454;-74
2022/05/22 19:13:42;;;;;;;2.30;1.40;;;;;;;14.36;70.61;98978.50;31359115;28;20063;-74
2022/05/22 19:28:45;;;;;;;53.43;17.37;;;;;;;14.09;71.35;98978.75;31329650;28;20053;-75
2022/05/22 19:43:58;;;;;;;1.37;1.10;;;;;;;13.96;73.54;98971.56;31340203;28;20041;-78
2022/05/22 19:59:03;;;;;;;56.87;13.80;;;;;;;13.76;74.95;98974.16;31329443;28;20055;-73
2022/05/22 20:14:05;;;;;;;2.00;0.90;;;;;;;13.48;76.24;98965.44;31338437;28;20151;-73
2022/05/22 20:29:08;;;;;;;1.57;0.90;;;;;;;13.44;78.66;98975.78;31365874;28;20511;-75
2022/05/22 20:44:35;;;;;;;1.77;1.10;;;;;;;13.60;80.71;98993.69;31371311;28;20045;-73
2022/05/22 20:59:43;;;;;;;24.53;5.00;;;;;;;13.60;81.34;98985.50;31378384;28;20867;-74
2022/05/22 21:14:49;;;;;;;1.77;0.93;;;;;;;13.61;82.08;98997.91;31351249;28;20506;-73
2022/05/22 21:29:51;;;;;;;2.33;0.90;;;;;;;13.46;84.30;98994.41;31319163;28;20045;-73
2022/05/22 21:44:54;;;;;;;48.97;22.30;;;;;;;13.34;85.47;99000.81;31364822;28;20546;-73
2022/05/22 21:59:59;;;;;;;1.57;1.00;;;;;;;13.31;86.47;99005.97;31356288;28;20096;-74
2022/05/22 22:15:01;;;;;;;1.67;1.15;;;;;;;13.30;87.25;99004.47;31331031;28;20052;-74
2022/05/22 22:30:03;;;;;;;1.63;0.97;;;;;;;13.28;87.44;99001.44;31311110;28;20502;-74
2022/05/22 22:45:07;;;;;;;1.40;0.97;;;;;;;13.08;89.91;99003.94;31358019;28;20139;-74
2022/05/22 23:00:15;;;;;;;1.20;0.90;;;;;;;12.92;91.27;99012.50;31315386;28;20054;-73
2022/05/22 23:15:19;;;;;;;1.80;1.20;;;;;;;12.88;91.91;99009.19;31322562;28;20055;-73
2022/05/22 23:30:22;;;;;;;0.93;0.73;;;;;;;12.71;94.87;99010.75;31343513;28;20063;-74
2022/05/22 23:45:24;;;;;;;2.00;0.93;;;;;;;12.60;95.47;99020.16;31338150;28;20045;-74
